Time;durP1;ratioP1;P1;durP2;ratioP2;P2;SDS_P1;SDS_P2;PMS_P1;PMS_P2;Temp;Humidity;BMP_temperature;BMP_pressure;BME280_temperature;BME280_humidity;BME280_pressure;Samples;Min_cycle;Max_cycle;Signal;HPM_P1;HPM_P2
2022/03/08 00:02:20;;;;;;;19.23;11.47;;;-3.20;93.70;;;;;;5072899;28;20474;-43
2022/03/08 00:04:47;;;;;;;18.63;12.17;;;-3.40;93.60;;;;;;5072731;28;20470;-44
2022/03/08 00:07:14;;;;;;;18.80;11.87;;;-3.40;94.20;;;;;;5072358;28;20478;-44
2022/03/08 00:09:43;;;;;;;20.40;12.63;;;-3.40;94.30;;;;;;5072339;28;21033;-44
2022/03/08 00:12:11;;;;;;;15.43;12.60;;;-3.10;94.50;;;;;;5072504;28;20441;-44
2022/03/08 00:14:39;;;;;;;18.80;11.87;;;-2.90;94.30;;;;;;5072658;28;20469;-44
2022/03/08 00:17:06;;;;;;;18.90;12.30;;;-2.70;94.00;;;;;;5072521;28;20941;-44
2022/03/08 00:19:34;;;;;;;14.80;12.10;;;-2.90;93.30;;;;;;5072012;28;20532;-44
2022/03/08 00:22:01;;;;;;;18.73;13.03;;;-2.50;93.40;;;;;;5072386;28;20446;-44
2022/03/08 00:24:28;;;;;;;16.43;13.43;;;-2.20;93.50;;;;;;5072174;28;20535;-44
2022/03/08 00:26:55;;;;;;;17.27;13.37;;;-1.80;93.00;;;;;;5072123;28;20916;-43
2022/03/08 00:29:22;;;;;;;18.10;12.77;;;-1.70;92.80;;;;;;5070854;28;20526;-44
2022/03/08 00:31:49;;;;;;;20.60;13.27;;;-1.70;92.50;;;;;;5072123;28;20535;-44
2022/03/08 00:34:16;;;;;;;15.17;12.17;;;-2.00;92.00;;;;;;5072255;28;20477;-43
2022/03/08 00:36:44;;;;;;;17.33;12.37;;;-2.40;92.00;;;;;;5071933;28;20473;-44
2022/03/08 00:39:11;;;;;;;17.67;12.00;;;-3.00;93.00;;;;;;5071691;28;20473;-44
2022/03/08 00:41:38;;;;;;;19.30;13.60;;;-2.90;93.80;;;;;;5071974;28;20493;-44
2022/03/08 00:44:06;;;;;;;17.33;12.57;;;-2.90;93.90;;;;;;5071844;28;20522;-43
2022/03/08 00:46:33;;;;;;;19.33;13.50;;;-2.70;93.90;;;;;;5071675;28;20560;-43
2022/03/08 00:49:00;;;;;;;16.93;11.80;;;-2.40;93.80;;;;;;5072213;28;20476;-41
2022/03/08 00:51:27;;;;;;;15.10;12.13;;;-2.10;93.10;;;;;;5130289;22;20504;-45
2022/03/08 00:53:55;;;;;;;15.53;12.10;;;-1.90;92.70;;;;;;5071546;28;20946;-45
2022/03/08 00:56:22;;;;;;;16.23;11.20;;;-1.70;92.90;;;;;;5071668;28;20470;-46
2022/03/08 00:58:49;;;;;;;16.63;11.37;;;-1.70;91.90;;;;;;5071628;28;20471;-45
2022/03/08 01:01:16;;;;;;;16.67;11.20;;;-1.80;91.70;;;;;;5071432;28;20488;-45
2022/03/08 01:03:43;;;;;;;15.47;10.67;;;-1.90;91.80;;;;;;5071769;28;20525;-47
2022/03/08 01:06:10;;;;;;;14.90;12.03;;;-2.40;91.30;;;;;;5071400;28;20554;-45
2022/03/08 01:08:37;;;;;;;17.33;11.13;;;-2.70;92.00;;;;;;5071485;28;20484;-44
2022/03/08 01:11:05;;;;;;;20.27;11.30;;;-3.10;92.00;;;;;;5071016;28;20496;-45
2022/03/08 01:13:32;;;;;;;19.67;12.00;;;-2.90;92.80;;;;;;5071464;28;20532;-45
2022/03/08 01:15:59;;;;;;;19.37;13.20;;;-2.80;92.80;;;;;;5071483;28;20488;-45
2022/03/08 01:18:26;;;;;;;17.90;12.30;;;-2.40;93.00;;;;;;5071689;28;20534;-45
2022/03/08 01:20:53;;;;;;;17.73;12.07;;;-2.20;92.90;;;;;;5070978;28;20900;-45
2022/03/08 01:23:20;;;;;;;16.77;12.10;;;-2.10;92.60;;;;;;5071354;28;20940;-46
2022/03/08 01:25:47;;;;;;;16.90;11.97;;;-2.10;92.10;;;;;;5071310;28;20531;-47
2022/03/08 01:28:15;;;;;;;14.87;11.27;;;-2.10;92.00;;;;;;5071564;28;20481;-45
2022/03/08 01:30:42;;;;;;;17.10;11.70;;;-1.90;91.80;;;;;;5070916;28;20495;-45
2022/03/08 01:33:09;;;;;;;15.20;12.30;;;-1.90;91.80;;;;;;5071084;28;20478;-45
2022/03/08 01:35:36;;;;;;;14.90;11.30;;;-1.90;91.50;;;;;;5071218;28;20478;-45
2022/03/08 01:38:03;;;;;;;15.43;11.13;;;-2.00;91.80;;;;;;5070569;28;20477;-47
2022/03/08 01:40:30;;;;;;;13.67;11.60;;;-2.10;91.80;;;;;;5070786;28;20868;-44
2022/03/08 01:42:57;;;;;;;13.47;11.10;;;-1.90;92.20;;;;;;5071276;28;20479;-45
2022/03/08 01:45:26;;;;;;;14.17;11.20;;;-1.70;91.70;;;;;;5071045;28;20494;-45
2022/03/08 01:47:54;;;;;;;19.17;12.90;;;-1.80;91.50;;;;;;5070985;28;20567;-45
2022/03/08 01:50:21;;;;;;;15.97;11.93;;;-1.90;91.50;;;;;;5070885;28;20476;-45
2022/03/08 01:52:49;;;;;;;17.40;11.90;;;-2.30;91.00;;;;;;5071030;28;20483;-44
2022/03/08 01:55:16;;;;;;;14.33;10.80;;;-2.80;91.70;;;;;;5071036;28;20482;-45
2022/03/08 01:57:45;;;;;;;15.70;11.10;;;-2.60;92.60;;;;;;5071110;28;20457;-45
2022/03/08 02:00:15;;;;;;;16.57;12.43;;;-2.30;92.30;;;;;;5070607;28;20971;-45
2022/03/08 02:02:44;;;;;;;11.50;9.80;;;-2.10;92.20;;;;;;5071082;28;20470;-44
2022/03/08 02:05:12;;;;;;;15.07;11.40;;;-1.90;92.00;;;;;;5071022;28;20483;-46
2022/03/08 02:07:39;;;;;;;15.47;12.20;;;-1.70;91.50;;;;;;5070736;28;20536;-46
2022/03/08 02:10:08;;;;;;;14.57;12.57;;;-1.80;91.20;;;;;;5070871;28;20531;-45
2022/03/08 02:12:36;;;;;;;19.73;11.70;;;-2.00;91.50;;;;;;5070846;28;20536;-46
2022/03/08 02:15:12;;;;;;;13.70;9.97;;;-1.90;91.50;;;;;;5070887;28;20482;-45
2022/03/08 02:17:39;;;;;;;18.90;12.50;;;-1.80;91.40;;;;;;5070651;28;20474;-45
2022/03/08 02:20:09;;;;;;;14.13;11.07;;;-1.60;91.40;;;;;;5070795;28;20808;-46
2022/03/08 02:22:38;;;;;;;17.73;13.23;;;-1.60;91.00;;;;;;5070630;28;20994;-45
2022/03/08 02:25:05;;;;;;;18.30;12.70;;;-1.60;91.20;;;;;;5070708;28;20477;-45
2022/03/08 02:27:32;;;;;;;15.93;12.00;;;-1.70;91.20;;;;;;5070766;28;20509;-46
2022/03/08 02:29:59;;;;;;;17.50;10.60;;;-1.80;91.40;;;;;;5070661;28;20880;-45
2022/03/08 02:32:26;;;;;;;15.10;10.27;;;-1.80;91.70;;;;;;5070616;28;20488;-46
2022/03/08 02:34:53;;;;;;;16.50;12.20;;;-1.60;91.30;;;;;;5070579;28;20478;-46
2022/03/08 02:37:21;;;;;;;17.10;11.60;;;-1.50;90.80;;;;;;5069981;28;20461;-44
2022/03/08 02:39:49;;;;;;;15.17;9.63;;;-1.80;90.70;;;;;;5070270;28;20450;-45
2022/03/08 02:42:16;;;;;;;18.37;12.50;;;-1.80;90.70;;;;;;5070422;28;20497;-45
2022/03/08 02:44:43;;;;;;;13.93;10.40;;;-1.60;90.60;;;;;;5070666;28;20493;-46
2022/03/08 02:47:10;;;;;;;15.20;10.67;;;-1.40;90.60;;;;;;5070424;28;20572;-45
2022/03/08 02:49:37;;;;;;;16.93;11.87;;;-1.40;90.50;;;;;;5070181;28;20472;-45
2022/03/08 02:52:04;;;;;;;13.90;10.23;;;-1.50;90.40;;;;;;5071694;28;20502;-45
2022/03/08 02:54:31;;;;;;;18.30;12.57;;;-1.50;90.50;;;;;;5074017;28;20532;-45
2022/03/08 02:56:59;;;;;;;13.80;10.97;;;-1.70;90.40;;;;;;5074034;28;20468;-45
2022/03/08 02:59:26;;;;;;;13.50;10.23;;;-1.70;90.20;;;;;;5073917;28;20468;-45
2022/03/08 03:01:53;;;;;;;18.00;11.60;;;-1.80;90.20;;;;;;5074009;28;20550;-45
2022/03/08 03:04:20;;;;;;;14.73;10.93;;;-1.90;90.40;;;;;;5074098;28;20530;-46
2022/03/08 03:06:47;;;;;;;13.73;10.70;;;-2.00;90.40;;;;;;5073741;28;21046;-45
2022/03/08 03:09:14;;;;;;;14.97;11.50;;;-2.00;91.20;;;;;;5074021;28;20525;-45
2022/03/08 03:11:41;;;;;;;15.60;9.97;;;-1.90;91.00;;;;;;5073185;28;20490;-45
2022/03/08 03:14:10;;;;;;;14.63;11.00;;;-1.80;90.90;;;;;;5073595;28;20442;-45
2022/03/08 03:16:37;;;;;;;15.77;11.37;;;-1.80;90.60;;;;;;5073750;28;20529;-45
2022/03/08 03:19:04;;;;;;;14.27;10.87;;;-1.90;90.60;;;;;;5073365;28;20443;-45
2022/03/08 03:21:31;;;;;;;15.27;13.63;;;-1.80;90.50;;;;;;5073463;28;20795;-45
2022/03/08 03:23:58;;;;;;;15.90;10.60;;;-1.90;89.20;;;;;;5073619;28;20862;-45
2022/03/08 03:26:25;;;;;;;14.47;10.20;;;-2.10;90.00;;;;;;5073479;28;20489;-45
2022/03/08 03:28:52;;;;;;;14.10;9.37;;;-2.20;90.00;;;;;;5073426;28;20477;-46
2022/03/08 03:31:20;;;;;;;11.50;9.83;;;-2.20;90.40;;;;;;5073168;28;21004;-44
2022/03/08 03:33:47;;;;;;;17.20;10.80;;;-2.30;90.30;;;;;;5073487;28;20477;-45
2022/03/08 03:36:14;;;;;;;13.33;9.57;;;-2.50;90.00;;;;;;5072806;28;20896;-45
2022/03/08 03:38:41;;;;;;;15.00;9.60;;;-2.50;90.10;;;;;;5072929;28;20473;-46
2022/03/08 03:41:08;;;;;;;16.23;10.83;;;-2.50;90.30;;;;;;5072931;28;20890;-45
2022/03/08 03:43:35;;;;;;;15.43;11.77;;;-2.60;90.20;;;;;;5073214;28;20479;-45
2022/03/08 03:46:02;;;;;;;12.53;8.70;;;-2.70;91.00;;;;;;5073102;28;20472;-45
2022/03/08 03:48:30;;;;;;;16.40;9.90;;;-2.60;91.10;;;;;;5072852;28;20487;-47
2022/03/08 03:50:57;;;;;;;16.03;10.20;;;-3.00;90.90;;;;;;5072973;28;20552;-46
2022/03/08 03:53:24;;;;;;;17.30;10.67;;;-2.90;91.20;;;;;;5073250;28;20481;-45
2022/03/08 03:55:51;;;;;;;14.03;10.67;;;-2.60;91.50;;;;;;5073087;28;20480;-46
2022/03/08 03:58:18;;;;;;;15.10;9.23;;;-2.50;90.70;;;;;;5072982;28;20468;-45
2022/03/08 04:00:45;;;;;;;15.90;10.60;;;-2.60;90.70;;;;;;5072550;28;20496;-45
2022/03/08 04:03:13;;;;;;;13.67;10.00;;;-2.50;90.40;;;;;;5072996;28;20474;-48
2022/03/08 04:05:41;;;;;;;15.33;10.00;;;-2.80;90.10;;;;;;5072917;28;20447;-45
2022/03/08 04:08:08;;;;;;;14.70;10.00;;;-3.00;91.00;;;;;;5072865;28;20567;-47
2022/03/08 04:10:37;;;;;;;17.03;10.30;;;-3.00;91.40;;;;;;5072272;28;20501;-44
2022/03/08 04:13:04;;;;;;;13.73;10.27;;;-2.80;91.40;;;;;;5072440;28;20441;-45
2022/03/08 04:15:31;;;;;;;15.10;11.00;;;-2.70;90.90;;;;;;5072346;28;20895;-46
2022/03/08 04:17:58;;;;;;;13.70;10.00;;;-2.80;91.00;;;;;;5072305;28;20524;-45
2022/03/08 04:20:24;;;;;;;16.10;10.27;;;-2.80;91.20;;;;;;5072222;28;20873;-44
2022/03/08 04:22:53;;;;;;;14.23;10.10;;;-2.70;91.10;;;;;;5072459;28;20584;-45
2022/03/08 04:25:20;;;;;;;13.67;9.90;;;-2.60;91.00;;;;;;5072257;28;20474;-45
2022/03/08 04:27:46;;;;;;;12.80;8.30;;;-2.40;91.00;;;;;;5072280;28;20509;-45
2022/03/08 04:30:13;;;;;;;12.90;10.00;;;-2.30;90.80;;;;;;5071958;28;20482;-46
2022/03/08 04:32:41;;;;;;;12.13;8.57;;;-2.20;90.80;;;;;;5072350;28;20550;-45
2022/03/08 04:35:08;;;;;;;14.07;9.97;;;-2.40;90.30;;;;;;5072279;28;20482;-46
2022/03/08 04:37:37;;;;;;;11.20;9.60;;;-2.50;90.00;;;;;;5071224;28;20475;-45
2022/03/08 04:40:08;;;;;;;10.97;8.60;;;-2.50;90.10;;;;;;5071829;28;20525;-45
2022/03/08 04:42:35;;;;;;;14.00;8.63;;;-2.70;90.00;;;;;;5071929;28;20499;-45
2022/03/08 04:45:02;;;;;;;13.57;9.43;;;-2.60;90.20;;;;;;5071871;28;20485;-46
2022/03/08 04:47:28;;;;;;;12.13;8.83;;;-2.60;90.20;;;;;;5071736;28;20502;-47
2022/03/08 04:49:55;;;;;;;15.10;10.77;;;-2.70;90.40;;;;;;5071590;28;21076;-45
2022/03/08 04:52:22;;;;;;;14.07;10.10;;;-2.60;90.00;;;;;;5071642;28;20547;-45
2022/03/08 04:54:49;;;;;;;16.17;10.00;;;-2.70;90.20;;;;;;5071747;28;20483;-45
2022/03/08 04:57:17;;;;;;;10.80;8.60;;;-2.70;90.50;;;;;;5072002;28;20475;-45
2022/03/08 04:59:44;;;;;;;11.87;8.23;;;-2.70;90.40;;;;;;5071569;28;20466;-44
2022/03/08 05:02:11;;;;;;;11.30;8.00;;;-2.80;89.90;;;;;;5071826;28;20510;-44
2022/03/08 05:04:38;;;;;;;12.13;9.13;;;-2.80;89.20;;;;;;5071861;28;20528;-45
2022/03/08 05:07:06;;;;;;;11.53;8.80;;;-3.00;89.60;;;;;;5071334;28;20563;-44
2022/03/08 05:09:32;;;;;;;14.40;8.67;;;-3.00;90.30;;;;;;5071336;28;20517;-45
2022/03/08 05:11:59;;;;;;;13.30;9.10;;;-3.00;90.30;;;;;;5071424;28;20565;-44
2022/03/08 05:14:28;;;;;;;13.70;8.57;;;-3.10;90.00;;;;;;5070966;28;20471;-46
2022/03/08 05:16:55;;;;;;;12.57;8.60;;;-3.30;89.40;;;;;;5071315;28;20818;-46
2022/03/08 05:19:21;;;;;;;13.07;9.33;;;-3.30;90.10;;;;;;5071086;28;20472;-45
2022/03/08 05:21:48;;;;;;;14.33;9.60;;;-3.40;90.60;;;;;;5071483;28;20521;-45
2022/03/08 05:24:15;;;;;;;13.70;10.17;;;-3.50;91.40;;;;;;5071852;28;20480;-45
2022/03/08 05:26:42;;;;;;;12.33;10.57;;;-3.40;91.70;;;;;;5071446;28;20476;-45
2022/03/08 05:29:10;;;;;;;16.50;11.30;;;-3.30;92.00;;;;;;5071315;28;20560;-47
2022/03/08 05:31:38;;;;;;;11.57;10.33;;;-3.20;92.20;;;;;;5071141;28;20465;-45
2022/03/08 05:34:05;;;;;;;12.70;9.57;;;-3.20;91.80;;;;;;5071384;28;20481;-44
2022/03/08 05:36:33;;;;;;;13.67;9.10;;;-3.00;91.40;;;;;;5070889;28;20892;-45
2022/03/08 05:39:00;;;;;;;12.17;9.10;;;-3.00;91.10;;;;;;5070933;28;20445;-45
2022/03/08 05:41:27;;;;;;;10.70;8.50;;;-3.00;90.40;;;;;;5071422;28;20453;-45
2022/03/08 05:43:53;;;;;;;11.40;9.10;;;-3.30;89.70;;;;;;5071437;28;20519;-45
2022/03/08 05:46:20;;;;;;;14.57;10.70;;;-3.30;90.20;;;;;;5070945;28;20522;-45
2022/03/08 05:48:49;;;;;;;18.00;10.00;;;-3.40;90.40;;;;;;5070737;28;20507;-45
2022/03/08 05:51:15;;;;;;;11.10;9.57;;;-3.30;90.60;;;;;;5070653;28;21011;-45
2022/03/08 05:53:42;;;;;;;13.37;9.20;;;-3.10;90.80;;;;;;5071323;28;20485;-45
2022/03/08 05:56:10;;;;;;;12.87;10.30;;;-3.10;90.90;;;;;;5070764;28;20477;-45
2022/03/08 05:58:37;;;;;;;12.43;9.80;;;-3.10;91.00;;;;;;5071082;28;20454;-45
2022/03/08 06:01:04;;;;;;;13.03;8.57;;;-3.10;91.10;;;;;;5070696;28;20499;-45
2022/03/08 06:03:31;;;;;;;10.93;8.33;;;-2.90;91.20;;;;;;5070726;28;20510;-46
2022/03/08 06:05:59;;;;;;;15.87;8.77;;;-2.80;90.80;;;;;;5071290;28;20536;-44
2022/03/08 06:08:26;;;;;;;12.67;8.77;;;-2.80;90.50;;;;;;5070923;28;20520;-45
2022/03/08 06:10:53;;;;;;;13.13;8.13;;;-2.90;90.30;;;;;;5070744;28;20496;-45
2022/03/08 06:13:20;;;;;;;10.00;8.30;;;-3.10;90.10;;;;;;5070751;28;20476;-44
2022/03/08 06:15:47;;;;;;;13.07;8.50;;;-3.00;90.50;;;;;;5070866;28;20478;-45
2022/03/08 06:18:14;;;;;;;14.60;10.13;;;-2.80;90.70;;;;;;5071192;28;20477;-45
2022/03/08 06:20:41;;;;;;;14.70;11.27;;;-2.90;90.40;;;;;;5070745;28;20497;-45
2022/03/08 06:23:10;;;;;;;16.80;12.23;;;-3.10;90.20;;;;;;5070926;28;20702;-44
2022/03/08 06:25:37;;;;;;;12.57;9.73;;;-3.50;90.10;;;;;;5071818;28;20547;-44
2022/03/08 06:28:05;;;;;;;15.53;9.60;;;-3.60;90.90;;;;;;5074710;28;20476;-45
2022/03/08 06:30:33;;;;;;;21.63;15.13;;;-3.80;91.50;;;;;;5074271;28;20450;-44
2022/03/08 06:33:00;;;;;;;17.23;13.00;;;-4.30;93.90;;;;;;5074416;28;20540;-45
2022/03/08 06:35:27;;;;;;;16.20;11.97;;;-4.20;94.10;;;;;;5074559;28;20478;-45
2022/03/08 06:37:54;;;;;;;19.83;14.27;;;-4.00;94.00;;;;;;5073555;28;20440;-46
2022/03/08 06:40:22;;;;;;;29.00;15.77;;;-4.10;93.90;;;;;;5074162;28;20436;-45
2022/03/08 06:42:49;;;;;;;24.57;15.17;;;-4.00;94.20;;;;;;5074290;28;20502;-45
2022/03/08 06:45:17;;;;;;;21.37;14.03;;;-3.80;94.10;;;;;;5074221;28;20509;-45
2022/03/08 06:47:44;;;;;;;22.13;13.90;;;-3.80;94.10;;;;;;5074029;28;20468;-45
2022/03/08 06:50:11;;;;;;;21.30;14.20;;;-3.60;94.00;;;;;;5074216;28;20855;-45
2022/03/08 06:52:38;;;;;;;14.20;11.33;;;-3.40;93.40;;;;;;5075110;28;20475;-45
2022/03/08 06:55:06;;;;;;;16.70;11.80;;;-3.40;92.90;;;;;;5074113;28;20937;-45
2022/03/08 06:57:34;;;;;;;14.77;11.63;;;-3.60;92.50;;;;;;5074072;28;20930;-45
2022/03/08 07:00:01;;;;;;;15.50;10.37;;;-3.60;92.70;;;;;;5073666;28;20800;-45
2022/03/08 07:02:28;;;;;;;14.50;11.70;;;-3.50;92.70;;;;;;5073843;28;20860;-45
2022/03/08 07:04:55;;;;;;;13.83;10.10;;;-3.40;92.60;;;;;;5073787;28;20449;-46
2022/03/08 07:07:22;;;;;;;16.03;11.47;;;-3.30;92.50;;;;;;5073809;28;20925;-45
2022/03/08 07:09:49;;;;;;;16.30;11.00;;;-3.20;92.60;;;;;;5073629;28;20942;-44
2022/03/08 07:12:16;;;;;;;16.80;11.80;;;-3.00;92.80;;;;;;5073529;28;20799;-45
2022/03/08 07:14:44;;;;;;;16.90;10.97;;;-2.90;93.10;;;;;;5073577;28;20440;-44
2022/03/08 07:17:11;;;;;;;17.47;10.20;;;-2.70;93.10;;;;;;5073782;28;20445;-44
2022/03/08 07:19:38;;;;;;;15.53;11.30;;;-2.40;92.80;;;;;;5073440;28;20460;-46
2022/03/08 07:22:05;;;;;;;15.23;11.60;;;-2.30;92.90;;;;;;5073472;28;20840;-44
2022/03/08 07:24:32;;;;;;;19.87;12.50;;;-2.30;92.90;;;;;;5073793;28;20443;-45
2022/03/08 07:27:00;;;;;;;29.87;17.53;;;-2.30;93.10;;;;;;5073507;28;20447;-45
2022/03/08 07:29:27;;;;;;;20.23;12.60;;;-2.20;93.20;;;;;;5073130;28;20481;-46
2022/03/08 07:31:55;;;;;;;13.73;11.10;;;-2.30;92.60;;;;;;5073093;28;20987;-45
2022/03/08 07:34:22;;;;;;;16.50;11.37;;;-2.30;92.00;;;;;;5073665;28;20441;-45
2022/03/08 07:36:49;;;;;;;13.37;10.50;;;-2.40;91.60;;;;;;5072536;28;21130;-45
2022/03/08 07:39:16;;;;;;;14.03;10.90;;;-2.40;91.60;;;;;;5073007;28;20433;-45
2022/03/08 07:41:43;;;;;;;16.10;11.03;;;-2.30;91.80;;;;;;5073194;28;20978;-45
2022/03/08 07:44:10;;;;;;;18.53;10.57;;;-2.20;91.60;;;;;;5073437;28;20444;-46
2022/03/08 07:46:37;;;;;;;11.60;9.30;;;-2.10;91.30;;;;;;5073313;28;20499;-45
2022/03/08 07:49:05;;;;;;;14.13;10.40;;;-2.20;91.40;;;;;;5073137;28;20476;-46
2022/03/08 07:51:32;;;;;;;15.37;10.63;;;-2.20;91.40;;;;;;5072955;28;20473;-45
2022/03/08 07:54:00;;;;;;;12.70;8.97;;;-2.30;90.70;;;;;;5073094;28;20447;-45
2022/03/08 07:56:27;;;;;;;11.73;8.90;;;-2.30;90.40;;;;;;5071277;28;20895;-45
2022/03/08 07:58:55;;;;;;;11.27;8.23;;;-2.30;90.50;;;;;;5072594;28;20438;-45
2022/03/08 08:01:23;;;;;;;12.40;8.63;;;-2.10;91.30;;;;;;5072871;28;20476;-45
2022/03/08 08:03:50;;;;;;;12.40;8.23;;;-2.00;91.20;;;;;;5072695;28;20496;-45
2022/03/08 08:06:18;;;;;;;12.00;8.20;;;-1.70;90.50;;;;;;5072716;28;20446;-45
2022/03/08 08:08:45;;;;;;;19.53;12.30;;;-1.70;90.00;;;;;;5072580;28;20947;-45
2022/03/08 08:11:12;;;;;;;11.07;8.83;;;-1.70;89.30;;;;;;5071877;28;20468;-45
2022/03/08 08:13:39;;;;;;;11.77;8.50;;;-2.10;88.70;;;;;;5072606;28;20444;-45
2022/03/08 08:16:06;;;;;;;9.53;8.60;;;-2.40;89.40;;;;;;5072625;28;20448;-46
2022/03/08 08:18:33;;;;;;;37.70;11.33;;;-2.70;90.50;;;;;;5072423;28;20989;-45
2022/03/08 08:21:01;;;;;;;11.10;8.57;;;-2.70;90.90;;;;;;5072235;28;20461;-44
2022/03/08 08:23:29;;;;;;;27.27;9.37;;;-2.60;91.20;;;;;;5072654;28;20449;-44
2022/03/08 08:25:56;;;;;;;14.37;9.23;;;-2.20;91.80;;;;;;5072529;28;20452;-45
2022/03/08 08:28:23;;;;;;;11.73;8.53;;;-1.80;91.90;;;;;;5071484;28;21051;-46
2022/03/08 08:30:50;;;;;;;11.50;8.60;;;-1.60;91.10;;;;;;5070267;28;21046;-45
2022/03/08 08:33:17;;;;;;;12.83;8.47;;;-1.50;90.70;;;;;;5070526;28;20443;-46
2022/03/08 08:35:44;;;;;;;12.67;8.23;;;-1.30;90.70;;;;;;5070244;28;20441;-45
2022/03/08 08:38:11;;;;;;;10.27;8.50;;;-1.50;91.20;;;;;;5071121;28;20508;-45
2022/03/08 08:40:39;;;;;;;11.30;8.13;;;-1.60;91.40;;;;;;5071434;28;20511;-45
2022/03/08 08:43:07;;;;;;;15.83;8.33;;;-1.60;91.00;;;;;;5072163;28;20476;-45
2022/03/08 08:45:35;;;;;;;13.13;8.50;;;-1.70;91.40;;;;;;5072077;28;20506;-46
2022/03/08 08:48:03;;;;;;;15.03;8.80;;;-1.60;92.20;;;;;;5071675;28;20937;-45
2022/03/08 08:50:31;;;;;;;16.00;9.17;;;-1.60;92.40;;;;;;5070468;28;20496;-45
2022/03/08 08:52:57;;;;;;;9.90;8.43;;;-1.50;91.30;;;;;;5071717;28;20502;-45
2022/03/08 08:55:25;;;;;;;10.60;8.80;;;-1.40;90.90;;;;;;5071893;28;20443;-45
2022/03/08 08:57:53;;;;;;;10.53;8.53;;;-1.10;90.90;;;;;;5071983;28;20448;-45
2022/03/08 09:00:20;;;;;;;11.83;9.47;;;-0.90;90.50;;;;;;5071361;28;20435;-47
2022/03/08 09:02:48;;;;;;;10.40;9.07;;;-0.70;89.90;;;;;;5071925;28;20439;-45
2022/03/08 09:05:15;;;;;;;11.83;9.20;;;-0.50;89.50;;;;;;5072003;28;20493;-45
2022/03/08 09:07:42;;;;;;;11.10;8.13;;;-0.70;90.30;;;;;;5071707;28;20813;-45
2022/03/08 09:10:10;;;;;;;13.77;10.63;;;-0.60;90.20;;;;;;5071157;28;21002;-45
2022/03/08 09:12:36;;;;;;;13.27;9.87;;;-0.60;89.00;;;;;;5071015;28;20469;-43
2022/03/08 09:15:06;;;;;;;15.07;10.40;;;-0.80;89.90;;;;;;5071901;28;20537;-45
2022/03/08 09:17:33;;;;;;;16.00;9.53;;;-0.90;90.30;;;;;;5071802;28;20439;-43
2022/03/08 09:20:00;;;;;;;14.20;10.40;;;-0.90;89.40;;;;;;5071309;28;20786;-45
2022/03/08 09:22:27;;;;;;;14.10;10.93;;;-0.90;88.20;;;;;;5071488;28;20499;-44
2022/03/08 09:24:54;;;;;;;18.60;11.70;;;-0.90;89.00;;;;;;5071896;28;20891;-44
2022/03/08 09:27:21;;;;;;;15.80;11.37;;;-0.90;89.00;;;;;;5071847;28;20444;-44
2022/03/08 09:29:48;;;;;;;15.27;10.17;;;-0.70;89.10;;;;;;5070829;28;20565;-44
2022/03/08 09:32:16;;;;;;;13.77;10.67;;;-0.50;88.50;;;;;;5071215;28;20501;-46
2022/03/08 09:34:43;;;;;;;16.10;11.00;;;-0.40;88.80;;;;;;5071286;28;20442;-46
2022/03/08 09:37:10;;;;;;;12.37;9.83;;;-0.40;87.80;;;;;;5070810;28;20477;-44
2022/03/08 09:39:37;;;;;;;10.17;8.17;;;-0.30;86.70;;;;;;5071051;28;20505;-45
2022/03/08 09:42:05;;;;;;;25.57;10.43;;;0.00;86.20;;;;;;5071313;28;20552;-44
2022/03/08 09:44:32;;;;;;;13.37;9.73;;;0.10;85.40;;;;;;5071253;28;20479;-44
2022/03/08 09:46:59;;;;;;;16.67;11.20;;;0.30;84.80;;;;;;5071241;28;20445;-44
2022/03/08 09:49:27;;;;;;;18.07;10.93;;;0.30;85.50;;;;;;5070970;28;20531;-45
2022/03/08 09:51:55;;;;;;;14.27;11.07;;;0.40;86.20;;;;;;5070768;28;20515;-44
2022/03/08 09:54:22;;;;;;;11.37;9.80;;;0.50;84.80;;;;;;5071123;28;20519;-44
2022/03/08 09:56:49;;;;;;;15.07;11.80;;;0.60;83.60;;;;;;5070979;28;20492;-44
2022/03/08 09:59:16;;;;;;;15.43;11.33;;;0.60;84.70;;;;;;5070626;28;20466;-43
2022/03/08 10:01:44;;;;;;;17.73;11.97;;;0.80;84.80;;;;;;5073326;28;20459;-45
2022/03/08 10:04:11;;;;;;;15.83;10.10;;;0.90;85.90;;;;;;5074976;28;20532;-45
2022/03/08 10:06:44;;;;;;;12.97;11.00;;;1.10;85.60;;;;;;5075083;28;20869;-44
2022/03/08 10:09:12;;;;;;;14.97;11.43;;;1.20;84.70;;;;;;5074648;28;20479;-44
2022/03/08 10:11:39;;;;;;;15.67;10.67;;;1.20;83.50;;;;;;5074525;28;20985;-44
2022/03/08 10:14:07;;;;;;;13.80;9.57;;;1.40;82.60;;;;;;5074598;28;20494;-45
2022/03/08 10:16:43;;;;;;;13.63;9.03;;;1.60;80.40;;;;;;5074537;28;20476;-44
2022/03/08 10:19:11;;;;;;;14.07;10.83;;;1.60;82.70;;;;;;5074433;28;20523;-46
2022/03/08 10:21:39;;;;;;;12.10;9.23;;;1.40;81.20;;;;;;5074151;28;20971;-48
2022/03/08 10:24:14;;;;;;;14.60;9.70;;;1.50;82.60;;;;;;5074473;28;20480;-43
2022/03/08 10:26:49;;;;;;;17.87;10.10;;;1.80;82.10;;;;;;5074609;28;20475;-45
2022/03/08 10:29:23;;;;;;;14.37;10.10;;;2.10;78.60;;;;;;5074166;28;20519;-44
2022/03/08 10:31:50;;;;;;;15.33;12.00;;;2.40;79.60;;;;;;5073886;28;20470;-44
2022/03/08 10:34:17;;;;;;;16.03;10.03;;;2.60;83.00;;;;;;5074514;28;20468;-45
2022/03/08 10:37:03;;;;;;;14.13;11.00;;;2.80;81.20;;;;;;5073808;28;20491;-45
2022/03/08 10:39:31;;;;;;;12.73;9.33;;;3.20;80.90;;;;;;5073292;28;20640;-45
2022/03/08 10:41:59;;;;;;;14.97;10.33;;;2.50;78.60;;;;;;5073920;28;20493;-44
2022/03/08 10:44:38;;;;;;;14.00;11.20;;;2.70;80.60;;;;;;5074384;28;20484;-45
2022/03/08 10:47:08;;;;;;;17.67;12.50;;;2.70;78.90;;;;;;5074211;28;20535;-45
2022/03/08 10:49:36;;;;;;;17.43;12.47;;;2.90;77.20;;;;;;5073987;28;20818;-44
2022/03/08 10:52:06;;;;;;;19.53;12.50;;;3.00;76.70;;;;;;5073974;28;20472;-45
2022/03/08 10:54:34;;;;;;;13.87;11.50;;;3.10;79.70;;;;;;5074200;28;20479;-45
2022/03/08 10:57:02;;;;;;;16.67;12.20;;;3.10;77.00;;;;;;5072706;28;20475;-45
2022/03/08 10:59:29;;;;;;;15.07;11.33;;;3.00;75.60;;;;;;5072208;28;20448;-45
2022/03/08 11:01:57;;;;;;;19.13;13.07;;;3.00;76.40;;;;;;5072762;28;20488;-45
2022/03/08 11:04:25;;;;;;;15.53;12.37;;;3.10;75.50;;;;;;5072597;28;20489;-45
2022/03/08 11:06:53;;;;;;;15.47;12.20;;;3.20;78.30;;;;;;5072386;28;20517;-45
2022/03/08 11:09:21;;;;;;;14.00;11.90;;;3.30;77.50;;;;;;5071822;28;20477;-45
2022/03/08 11:11:50;;;;;;;15.07;11.80;;;3.50;76.30;;;;;;5073042;28;20529;-44
2022/03/08 11:14:17;;;;;;;14.23;12.10;;;3.50;73.20;;;;;;5073303;28;20445;-45
2022/03/08 11:16:50;;;;;;;14.50;12.57;;;3.50;75.10;;;;;;5073978;28;20851;-45
2022/03/08 11:19:18;;;;;;;18.30;13.00;;;3.60;74.40;;;;;;5073412;28;20889;-45
2022/03/08 11:21:46;;;;;;;16.40;11.93;;;3.80;76.70;;;;;;5073600;28;20467;-45
2022/03/08 11:24:14;;;;;;;14.57;13.00;;;3.80;79.60;;;;;;5074036;28;20471;-45
2022/03/08 11:26:43;;;;;;;15.53;11.97;;;3.80;76.10;;;;;;5073645;28;20494;-45
2022/03/08 11:29:12;;;;;;;16.80;11.37;;;3.90;73.50;;;;;;5071630;28;20557;-44
2022/03/08 11:31:41;;;;;;;16.00;12.30;;;3.90;75.50;;;;;;5072471;28;20516;-45
2022/03/08 11:34:22;;;;;;;16.27;11.97;;;4.10;74.80;;;;;;5072321;28;20941;-45
2022/03/08 11:36:59;;;;;;;16.27;12.30;;;4.20;75.40;;;;;;5071010;28;20440;-45
2022/03/08 11:39:28;;;;;;;17.33;13.10;;;4.20;75.10;;;;;;5070838;28;20464;-45
2022/03/08 11:41:57;;;;;;;16.60;13.60;;;4.20;73.90;;;;;;5072163;28;20454;-48
2022/03/08 11:44:29;;;;;;;17.83;14.40;;;4.20;72.60;;;;;;5072760;28;20501;-44
2022/03/08 11:47:05;;;;;;;20.10;13.63;;;4.10;75.30;;;;;;5072715;28;20467;-45
2022/03/08 11:49:44;;;;;;;17.53;12.43;;;4.20;71.40;;;;;;5072365;28;20511;-46
2022/03/08 11:52:14;;;;;;;18.53;13.97;;;4.30;76.40;;;;;;5072845;28;20553;-45
2022/03/08 11:54:41;;;;;;;19.80;14.67;;;4.40;73.90;;;;;;5073072;28;20531;-45
2022/03/08 11:57:08;;;;;;;13.07;10.80;;;4.10;71.30;;;;;;5073553;28;20526;-46
2022/03/08 11:59:36;;;;;;;15.37;12.27;;;4.10;72.00;;;;;;5072404;28;20482;-45
2022/03/08 12:02:04;;;;;;;14.70;11.83;;;4.10;73.80;;;;;;5072868;28;20505;-45
2022/03/08 12:04:45;;;;;;;15.27;11.43;;;4.20;73.10;;;;;;5072865;28;20443;-45
2022/03/08 12:07:26;;;;;;;17.00;12.77;;;4.40;75.90;;;;;;5072860;28;20440;-45
2022/03/08 12:10:26;;;;;;;19.63;13.00;;;4.60;77.20;;;;;;5072568;28;20545;-46
2022/03/08 12:12:55;;;;;;;14.57;12.10;;;4.70;72.90;;;;;;5071339;28;20451;-46
2022/03/08 12:15:23;;;;;;;17.80;11.93;;;4.90;73.20;;;;;;5070930;28;20441;-47
2022/03/08 12:18:17;;;;;;;16.17;12.33;;;5.00;74.40;;;;;;5071096;28;20527;-45
2022/03/08 12:20:44;;;;;;;16.30;12.33;;;5.10;73.70;;;;;;5068800;28;20470;-43
2022/03/08 12:23:11;;;;;;;16.47;12.07;;;5.40;72.60;;;;;;5070924;28;20498;-44
2022/03/08 12:25:38;;;;;;;18.40;12.97;;;5.30;68.20;;;;;;5071284;28;20877;-46
2022/03/08 12:28:05;;;;;;;19.50;12.97;;;4.70;74.20;;;;;;5072282;28;20870;-45
2022/03/08 12:30:46;;;;;;;16.60;13.03;;;4.60;72.60;;;;;;5072031;28;20483;-45
2022/03/08 12:33:13;;;;;;;16.33;11.80;;;4.60;72.50;;;;;;5072504;28;20436;-45
2022/03/08 12:35:52;;;;;;;18.73;12.23;;;4.80;73.40;;;;;;5072208;28;20476;-46
2022/03/08 12:38:19;;;;;;;17.80;12.57;;;5.00;70.50;;;;;;5072440;28;20785;-46